Flight Track Log - Related Links

Times and Time Zones

All times are in EDT time to prevent confusion due to time zone crossing. See the AWE1940 flight status page for this flight to view local times or setup timezone preferences in your user account.


Time Position Orientation Groundspeed Altitude Reporting Facility
EDT Latitude Longitude Course Direction KTS MPH feet Rate Location/Type
Mon 01:11:00 AM 37.4408 -76.3378 35° Northeast  Level FlightAware Approximate
Mon 01:12:00 AM 37.5313 -76.2521 38° Northeast  Level FlightAware Approximate
Mon 01:13:00 AM 37.6202 -76.1635 35° Northeast  Level FlightAware Approximate
Mon 01:14:00 AM 37.7128 -76.0813 35° Northeast  Level FlightAware Approximate
Mon 01:15:00 AM 37.8055 -75.9989 35° Northeast  Level FlightAware Approximate
Mon 01:16:00 AM 37.8982 -75.9165 35° Northeast  Level FlightAware Approximate
Mon 01:17:00 AM 37.9891 -75.8309 37° Northeast  Level FlightAware Approximate
Mon 01:18:00 AM 38.0796 -75.7443 37° Northeast  Level FlightAware Approximate
Mon 01:19:00 AM 38.1699 -75.6576 37° Northeast  Level FlightAware Approximate
Mon 01:20:00 AM 38.2603 -75.5706 37° Northeast  Level FlightAware Approximate
Mon 01:21:00 AM 38.3539 -75.4920 17° North  Level FlightAware Approximate
Mon 01:22:00 AM 38.4622 -75.4497 17° North  Level FlightAware Approximate
Mon 01:23:00 AM 38.5705 -75.4074 17° North  Level FlightAware Approximate
Mon 01:24:00 AM 38.6788 -75.3649 17° North  Level FlightAware Approximate
Mon 01:25:00 AM 38.7866 -75.3203 18° North  Level FlightAware Approximate
Mon 01:26:00 AM 38.8941 -75.2744 18° North  Level FlightAware Approximate
Mon 01:27:00 AM 39.0015 -75.2285 18° North  Level FlightAware Approximate
Mon 01:28:00 AM 39.1090 -75.1824 18° North  Level FlightAware Approximate
Mon 01:29:00 AM 39.2164 -75.1361 18° North  Level FlightAware Approximate
Mon 01:30:00 AM 39.3199 -75.0803 37° Northeast  Level FlightAware Approximate
Mon 01:31:00 AM 39.4099 -74.9914 37° Northeast  Level FlightAware Approximate
Mon 01:32:00 AM 39.4999 -74.9023 37° Northeast  Level FlightAware Approximate
Mon 01:33:00 AM 39.5897 -74.8129 37° Northeast  Level FlightAware Approximate
Mon 01:34:00 AM 39.6795 -74.7232 38° Northeast  Level FlightAware Approximate
Mon 01:35:00 AM 39.7692 -74.6334 38° Northeast  Level FlightAware Approximate
Mon 01:36:00 AM 39.8589 -74.5433 38° Northeast  Level FlightAware Approximate
Mon 01:37:00 AM 39.9485 -74.4530 38° Northeast  Level FlightAware Approximate
Mon 01:38:00 AM 40.0380 -74.3624 38° Northeast  Level FlightAware Approximate
Mon 01:39:00 AM 40.1241 -74.2664 42° Northeast  Level FlightAware Approximate
Mon 01:40:00 AM 40.2134 -74.1758 34° Northeast  Level FlightAware Approximate
Mon 01:41:00 AM 40.3085 -74.0958 21° North  Level FlightAware Approximate
Mon 01:42:00 AM 40.4144 -74.0431 21° North  Level FlightAware Approximate
Mon 01:43:00 AM 40.5203 -73.9902 21° North  Level FlightAware Approximate
Mon 01:44:00 AM 40.6261 -73.9372 21° North  Level FlightAware Approximate
Mon 01:45:00 AM 40.7319 -73.8840 21° North  Level FlightAware Approximate
Mon 01:46:00 AM 40.8144 -73.7985 59° Northeast  Level FlightAware Approximate
Mon 01:47:00 AM 40.8756 -73.6735 40° Northeast  Level FlightAware Approximate
Mon 01:48:00 AM 40.9623 -73.5771 40° Northeast  Level FlightAware Approximate
Mon 01:49:00 AM 41.0504 -73.4829 37° Northeast  Level FlightAware Approximate
Mon 01:50:00 AM 41.1343 -73.3824 37° Northeast  Level FlightAware Approximate
Mon 01:51:00 AM 41.2248 -73.2919 37° Northeast  Level FlightAware Approximate
Mon 01:52:00 AM 41.3153 -73.2014 37° Northeast  Level FlightAware Approximate
Mon 01:53:00 AM 41.4171 -73.2252 339° North  Level FlightAware Approximate
Mon 01:54:00 AM 41.5243 -73.2727 349° North  Level FlightAware Approximate
Mon 01:55:00 AM 41.6303 -73.3223 343° North  Level FlightAware Approximate
Mon 01:56:00 AM 41.7386 -73.3668 343° North  Level FlightAware Approximate
Mon 01:57:00 AM 41.8469 -73.4114 343° North  Level FlightAware Approximate
Mon 01:58:00 AM 41.9556 -73.4541 344° North  Level FlightAware Approximate
Mon 01:59:00 AM 42.0638 -73.4986 340° North  Level FlightAware Approximate
Mon 02:00:00 AM 42.1741 -73.5043 North  Level FlightAware Approximate
Mon 02:01:00 AM 42.2855 -73.4799 North  Level FlightAware Approximate
Mon 02:02:00 AM 42.3977 -73.4595 North  Level FlightAware Approximate
Mon 02:03:00 AM 42.4973 -73.4613 304° West  Level FlightAware Approximate
Mon 02:04:00 AM 42.5807 -73.5640 324° Northwest  Level FlightAware Approximate
Mon 02:05:00 AM 42.6560 -73.6784 317° Northwest  Level FlightAware Approximate
Mon 02:06:00 AM 42.7301 -73.7936 304° West  Level FlightAware Approximate
Mon 02:07:00 AM 42.7333 -73.8000 304° West  Level FlightAware Approximate
Mon 02:08:00 AM 42.7491 -73.8020 304° West  Level Estimated
Mon 02:09:00 AM 42.7491 -73.8020 304° West  Level Estimated
Mon 02:10:00 AM 42.7491 -73.8020 304° West  Level Estimated
Mon 02:11:00 AM 42.7491 -73.8020 304° West  Level Estimated
Mon 02:12:00 AM 42.7491 -73.8020 304° West  Level Estimated
Mon 02:13:00 AM 42.7491 -73.8020 304° West  Level Estimated
Mon 02:14:00 AM 42.7491 -73.8020 304° West  Level Estimated
Mon 02:15:00 AM 42.7491 -73.8020 304° West  Level Estimated
Mon 02:16:00 AM 42.7491 -73.8020 304° West  Level Estimated
Mon 02:17:00 AM 42.7491 -73.8020 304° West  Level Estimated
Mon 02:18:00 AM 42.7491 -73.8020 304° West  Level Estimated
Mon 02:19:00 AM 42.7491 -73.8020 304° West  Level Estimated
Mon 02:20:00 AM 42.7491 -73.8020 304° West  Level Estimated
Mon 02:21:00 AM 42.7491 -73.8020 304° West  Level Estimated
Mon 02:22:00 AM 42.7491 -73.8020 304° West  Level Estimated

Login

Don't have an account? Register now (free) for customized features, flight alerts, and more!